Terminal Aerodrome Forecast
Issued by NWS Tampa Bay Area, FL

Home | Current Version | Previous Version | Text Only | Print | Product List | Glossary On
Versions: 1 2 3 4 5 6 7 8 9 10 11 12 13
432
FTUS42 KTBW 211121
TAFFMY
TAF
KFMY 211121Z 2112/2212 VRB03KT P6SM FEW080 SCT200
     FM211800 04007KT P6SM VCSH BKN040 BKN250
     FM220000 04007KT P6SM BKN070 BKN200
     FM220800 VRB03KT P6SM FEW100 SCT250=

USA.gov is the U.S. government's official web portal to all federal, state and local government web resources and services.